createdAt,value
2019-02-09T00:01:00.451Z,357.13
2019-02-09T00:04:07.703Z,303.73
2019-02-09T00:07:14.477Z,243.87
2019-02-09T00:10:21.313Z,365.10
2019-02-09T00:13:28.286Z,370.30
2019-02-09T00:16:35.082Z,444.57
2019-02-09T00:19:41.971Z,398.30
2019-02-09T00:22:49.723Z,408.63
2019-02-09T00:25:56.503Z,442.23
2019-02-09T00:29:03.437Z,374.37
2019-02-09T00:32:10.261Z,435.30
2019-02-09T00:35:17.209Z,501.53
2019-02-09T00:38:24.153Z,444.10
2019-02-09T00:41:31.215Z,460.90
2019-02-09T00:44:38.071Z,454.90
2019-02-09T00:47:45.190Z,510.43
2019-02-09T00:50:52.001Z,524.73
2019-02-09T00:53:58.805Z,510.60
2019-02-09T00:57:05.651Z,370.63
2019-02-09T01:00:15.609Z,467.90
2019-02-09T01:03:22.475Z,645.30
2019-02-09T01:06:29.345Z,400.47
2019-02-09T01:09:36.294Z,534.10
2019-02-09T01:12:43.105Z,498.90
2019-02-09T01:15:49.929Z,270.43
2019-02-09T01:18:58.819Z,334.20
2019-02-09T01:22:05.313Z,316.50
2019-02-09T01:25:12.475Z,364.77
2019-02-09T01:28:19.473Z,473.37
2019-02-09T01:31:26.541Z,424.63
2019-02-09T01:34:33.461Z,508.33
2019-02-09T01:37:40.330Z,462.83
2019-02-09T01:40:47.097Z,448.10
2019-02-09T01:43:54.085Z,234.23
2019-02-09T01:47:01.009Z,369.57
2019-02-09T01:50:09.647Z,433.27
2019-02-09T01:53:18.157Z,370.77
2019-02-09T01:56:24.957Z,197.67
2019-02-09T01:59:31.749Z,308.13
2019-02-09T02:02:38.583Z,514.77
2019-02-09T02:05:45.561Z,427.20
2019-02-09T02:08:52.327Z,472.73
2019-02-09T02:11:59.227Z,200.33
2019-02-09T02:15:09.035Z,350.67
2019-02-09T02:18:15.875Z,282.30
2019-02-09T02:21:22.841Z,217.03
2019-02-09T02:24:29.739Z,238.40
2019-02-09T02:27:36.575Z,298.37
2019-02-09T02:30:43.380Z,107.40
2019-02-09T02:33:50.168Z,151.90
2019-02-09T02:36:57.031Z,208.30
2019-02-09T02:40:03.773Z,159.93
2019-02-09T02:43:10.905Z,154.70
2019-02-09T02:46:17.915Z,208.53
2019-02-09T02:49:24.746Z,193.20
2019-02-09T02:52:33.103Z,196.43
2019-02-09T02:55:39.939Z,242.20
2019-02-09T02:58:46.835Z,173.00
2019-02-09T03:01:53.682Z,294.30
2019-02-09T03:05:02.882Z,277.83
2019-02-09T03:08:10.151Z,279.97
2019-02-09T03:11:17.395Z,189.27
2019-02-09T03:14:25.645Z,214.73
2019-02-09T03:17:33.861Z,162.83
2019-02-09T03:20:40.789Z,274.63
2019-02-09T03:23:47.714Z,271.37
2019-02-09T03:26:54.560Z,186.10
2019-02-09T03:30:01.827Z,219.33
2019-02-09T03:33:09.842Z,274.40
2019-02-09T03:36:16.638Z,255.37
2019-02-09T03:39:23.559Z,175.13
2019-02-09T03:42:30.580Z,134.83
2019-02-09T03:45:37.309Z,131.83
2019-02-09T03:48:44.141Z,100.27
2019-02-09T03:51:50.935Z,87.43
2019-02-09T03:54:58.005Z,67.50
2019-02-09T03:58:05.069Z,80.20
2019-02-09T04:01:11.877Z,84.30
2019-02-09T04:04:18.774Z,51.70
2019-02-09T04:07:25.529Z,81.77
2019-02-09T04:10:32.326Z,65.80
2019-02-09T04:13:39.165Z,80.57
2019-02-09T04:16:45.949Z,49.60
2019-02-09T04:19:53.168Z,60.73
2019-02-09T04:23:00.033Z,27.70
2019-02-09T04:26:06.853Z,54.53
2019-02-09T04:29:13.664Z,37.73
2019-02-09T04:32:20.481Z,72.10
2019-02-09T04:35:27.293Z,51.37
2019-02-09T04:38:34.101Z,50.83
2019-02-09T04:41:40.920Z,51.50
2019-02-09T04:44:47.666Z,80.70
2019-02-09T04:47:54.594Z,102.20
2019-02-09T04:51:01.545Z,99.73
2019-02-09T04:54:08.324Z,52.33
2019-02-09T04:57:16.747Z,60.60
2019-02-09T05:00:28.464Z,84.60
2019-02-09T05:03:35.328Z,89.40
2019-02-09T05:06:42.172Z,101.17
2019-02-09T05:09:49.288Z,114.87
2019-02-09T05:12:56.283Z,64.73
2019-02-09T05:16:03.111Z,115.87
2019-02-09T05:19:09.989Z,83.53
2019-02-09T05:22:17.237Z,184.27
2019-02-09T05:25:24.026Z,127.73
2019-02-09T05:28:32.900Z,141.83
2019-02-09T05:31:39.749Z,124.57
2019-02-09T05:34:46.539Z,78.50
2019-02-09T05:37:53.400Z,81.27
2019-02-09T05:41:00.305Z,97.73
2019-02-09T05:44:07.198Z,108.93
2019-02-09T05:47:14.132Z,150.53
2019-02-09T05:50:21.031Z,76.00
2019-02-09T05:53:27.868Z,55.77
2019-02-09T05:56:34.666Z,89.97
2019-02-09T05:59:42.576Z,129.53
2019-02-09T06:02:49.509Z,92.70
2019-02-09T06:05:56.305Z,130.53
2019-02-09T06:09:03.537Z,112.80
2019-02-09T06:12:10.476Z,79.30
2019-02-09T06:15:17.833Z,101.80
2019-02-09T06:18:24.987Z,84.00
2019-02-09T06:21:31.748Z,125.17
2019-02-09T06:24:38.496Z,203.27
2019-02-09T06:27:45.308Z,175.00
2019-02-09T06:30:52.194Z,166.37
2019-02-09T06:33:59.309Z,145.60
2019-02-09T06:37:06.185Z,124.73
2019-02-09T06:40:14.257Z,118.30
2019-02-09T06:43:21.166Z,129.30
2019-02-09T06:46:27.947Z,128.63
2019-02-09T06:49:34.757Z,186.13
2019-02-09T06:52:41.499Z,114.93
2019-02-09T06:55:48.494Z,137.67
2019-02-09T06:58:55.506Z,241.60
2019-02-09T07:02:02.310Z,233.60
2019-02-09T07:05:12.682Z,246.73
2019-02-09T07:08:19.523Z,170.23
2019-02-09T07:11:26.335Z,196.23
2019-02-09T07:14:34.015Z,225.77
2019-02-09T07:17:40.807Z,199.23
2019-02-09T07:20:47.558Z,206.47
2019-02-09T07:23:54.648Z,102.77
2019-02-09T07:27:01.565Z,172.75
2019-02-09T07:30:11.144Z,118.07
2019-02-09T07:33:18.340Z,148.63
2019-02-09T07:36:25.166Z,72.80
2019-02-09T07:39:32.060Z,91.57
2019-02-09T07:42:39.068Z,82.33
2019-02-09T07:45:45.870Z,162.03
2019-02-09T07:48:52.698Z,66.63
2019-02-09T07:52:00.824Z,115.73
2019-02-09T07:55:09.066Z,127.77
2019-02-09T07:58:15.848Z,151.20
2019-02-09T08:01:22.818Z,104.20
2019-02-09T08:04:29.846Z,102.50
2019-02-09T08:07:36.671Z,127.10
2019-02-09T08:10:43.511Z,95.43
2019-02-09T08:13:51.824Z,161.53
2019-02-09T08:16:58.711Z,171.50
2019-02-09T08:20:06.371Z,173.77
2019-02-09T08:23:13.624Z,125.57
2019-02-09T08:26:20.671Z,107.87
2019-02-09T08:29:27.677Z,97.47
2019-02-09T08:32:34.540Z,100.83
2019-02-09T08:35:41.433Z,82.63
2019-02-09T08:38:48.460Z,80.70
2019-02-09T08:41:55.402Z,84.07
2019-02-09T08:45:02.322Z,92.13
2019-02-09T08:48:09.103Z,63.53
2019-02-09T08:51:16.323Z,61.60
2019-02-09T08:54:23.137Z,47.70
2019-02-09T08:57:29.934Z,52.77
2019-02-09T09:00:36.931Z,44.90
2019-02-09T09:03:43.868Z,58.63
2019-02-09T09:06:50.790Z,52.43
2019-02-09T09:09:57.523Z,70.50
2019-02-09T09:13:05.683Z,58.37
2019-02-09T09:16:13.902Z,62.60
2019-02-09T09:19:20.888Z,72.53
2019-02-09T09:22:27.818Z,84.40
2019-02-09T09:25:34.691Z,73.73
2019-02-09T09:28:41.480Z,87.73
2019-02-09T09:31:48.330Z,42.43
2019-02-09T09:34:55.314Z,61.43
2019-02-09T09:38:02.308Z,50.63
2019-02-09T09:41:09.129Z,76.90
2019-02-09T09:44:15.926Z,75.57
2019-02-09T09:47:22.655Z,68.90
2019-02-09T09:50:30.660Z,62.07
2019-02-09T09:53:37.864Z,49.37
2019-02-09T09:56:44.768Z,46.17
2019-02-09T09:59:51.754Z,69.13
2019-02-09T10:02:58.806Z,50.20
2019-02-09T10:06:05.660Z,65.43
2019-02-09T10:09:12.515Z,66.03
2019-02-09T10:12:19.525Z,55.27
2019-02-09T10:15:26.397Z,64.37
2019-02-09T10:18:33.292Z,69.43
2019-02-09T10:21:40.068Z,77.77
2019-02-09T10:24:46.992Z,77.77
2019-02-09T10:27:54.166Z,69.03
2019-02-09T10:31:01.451Z,69.67
2019-02-09T10:34:08.410Z,91.33
2019-02-09T10:37:15.341Z,74.43
2019-02-09T10:40:27.248Z,69.83
2019-02-09T10:43:34.154Z,80.17
2019-02-09T10:46:40.931Z,78.37
2019-02-09T10:49:47.943Z,116.37
2019-02-09T10:52:54.752Z,128.83
2019-02-09T10:56:03.116Z,131.47
2019-02-09T10:59:09.867Z,124.00
2019-02-09T11:02:16.785Z,106.77
2019-02-09T11:05:23.600Z,69.00
2019-02-09T11:08:30.369Z,53.00
2019-02-09T11:11:37.241Z,59.53
2019-02-09T11:14:44.124Z,75.50
2019-02-09T11:17:50.999Z,74.20
2019-02-09T11:20:57.843Z,72.37
2019-02-09T11:24:04.710Z,71.73
2019-02-09T11:27:11.593Z,70.37
2019-02-09T11:30:20.784Z,79.13
2019-02-09T11:33:27.675Z,75.30
2019-02-09T11:36:37.371Z,63.13
2019-02-09T11:39:44.334Z,65.67
2019-02-09T11:42:51.258Z,96.87
2019-02-09T11:45:58.122Z,60.98
2019-02-09T11:49:04.937Z,85.87
2019-02-09T11:52:11.858Z,100.80
2019-02-09T11:55:18.739Z,88.27
2019-02-09T11:58:25.622Z,75.27
2019-02-09T12:01:32.449Z,88.80
2019-02-09T12:04:41.198Z,101.03
2019-02-09T12:07:50.087Z,98.70
2019-02-09T12:10:56.907Z,145.07
2019-02-09T12:14:05.479Z,88.90
2019-02-09T12:17:12.446Z,68.47
2019-02-09T12:20:19.378Z,54.97
2019-02-09T12:23:26.248Z,60.17
2019-02-09T12:26:33.175Z,61.90
2019-02-09T12:29:40.094Z,59.33
2019-02-09T12:32:46.926Z,60.03
2019-02-09T12:35:53.764Z,46.37
2019-02-09T12:39:01.863Z,52.67
2019-02-09T12:42:09.024Z,54.07
2019-02-09T12:45:16.833Z,53.97
2019-02-09T12:48:23.696Z,42.37
2019-02-09T12:51:30.459Z,49.77
2019-02-09T12:54:37.299Z,47.50
2019-02-09T12:57:44.609Z,44.00
2019-02-09T13:00:52.531Z,64.40
2019-02-09T13:03:59.323Z,44.67
2019-02-09T13:07:06.346Z,50.73
2019-02-09T13:10:13.752Z,50.20
2019-02-09T13:13:21.088Z,52.20
2019-02-09T13:16:28.043Z,42.20
2019-02-09T13:19:34.861Z,42.17
2019-02-09T13:22:41.634Z,64.40
2019-02-09T13:25:48.769Z,59.90
2019-02-09T13:28:55.599Z,63.80
2019-02-09T13:32:02.874Z,76.40
2019-02-09T13:35:09.839Z,90.13
2019-02-09T13:38:18.396Z,45.80
2019-02-09T13:41:25.413Z,46.17
2019-02-09T13:44:32.624Z,98.13
2019-02-09T13:47:39.623Z,70.47
2019-02-09T13:50:46.435Z,34.13
2019-02-09T13:53:53.294Z,59.33
2019-02-09T13:57:00.179Z,98.00
2019-02-09T14:00:10.479Z,81.10
2019-02-09T14:03:18.669Z,105.87
2019-02-09T14:06:25.526Z,54.30
2019-02-09T14:09:32.382Z,56.73
2019-02-09T14:12:39.248Z,56.37
2019-02-09T14:15:46.026Z,57.67
2019-02-09T14:18:53.159Z,53.40
2019-02-09T14:22:00.349Z,34.30
2019-02-09T14:25:07.211Z,54.13
2019-02-09T14:28:14.197Z,37.30
2019-02-09T14:31:20.981Z,38.70
2019-02-09T14:34:29.492Z,45.10
2019-02-09T14:37:36.449Z,41.93
2019-02-09T14:40:43.283Z,39.13
2019-02-09T14:43:50.039Z,46.63
2019-02-09T14:46:56.887Z,33.00
2019-02-09T14:50:11.122Z,59.90
2019-02-09T14:53:14.422Z,54.37
2019-02-09T14:56:22.239Z,52.17
2019-02-09T14:59:29.238Z,46.80
2019-02-09T15:02:36.057Z,57.37
2019-02-09T15:05:42.861Z,69.93
2019-02-09T15:08:49.919Z,58.80
2019-02-09T15:11:56.666Z,49.87
2019-02-09T15:15:03.433Z,48.37
2019-02-09T15:18:10.831Z,50.70
2019-02-09T15:21:17.851Z,43.53
2019-02-09T15:24:24.684Z,65.10
2019-02-09T15:27:31.563Z,53.87
2019-02-09T15:30:38.382Z,56.63
2019-02-09T15:33:45.209Z,65.43
2019-02-09T15:36:51.975Z,45.93
2019-02-09T15:39:58.860Z,74.07
2019-02-09T15:43:05.711Z,74.23
2019-02-09T15:46:12.624Z,63.43
2019-02-09T15:49:19.463Z,78.87
2019-02-09T15:52:26.228Z,86.37
2019-02-09T15:55:32.993Z,83.77
2019-02-09T15:58:39.747Z,80.17
2019-02-09T16:01:46.491Z,66.60
2019-02-09T16:04:54.352Z,74.67
2019-02-09T16:08:01.667Z,102.17
2019-02-09T16:11:08.956Z,106.10
2019-02-09T16:14:17.526Z,182.73
2019-02-09T16:17:24.427Z,168.97
2019-02-09T16:20:31.233Z,92.13
2019-02-09T16:23:38.139Z,91.50
2019-02-09T16:26:45.063Z,115.00
2019-02-09T16:29:51.829Z,91.57
2019-02-09T16:32:58.643Z,153.32
2019-02-09T16:36:05.775Z,172.83
2019-02-09T16:39:12.632Z,137.70
2019-02-09T16:42:19.481Z,124.17
2019-02-09T16:45:32.480Z,96.33
2019-02-09T16:48:39.495Z,67.00
2019-02-09T16:51:46.291Z,88.27
2019-02-09T16:54:54.160Z,70.10
2019-02-09T16:58:01.108Z,85.17
2019-02-09T17:01:07.821Z,84.93
2019-02-09T17:04:14.722Z,92.53
2019-02-09T17:07:21.651Z,118.93
2019-02-09T17:10:28.471Z,103.13
2019-02-09T17:13:35.298Z,104.13
2019-02-09T17:16:42.128Z,106.80
2019-02-09T17:19:48.979Z,99.43
2019-02-09T17:22:55.742Z,105.50
2019-02-09T17:26:02.580Z,92.40
2019-02-09T17:29:09.337Z,82.20
2019-02-09T17:32:16.191Z,87.60
2019-02-09T17:35:22.934Z,81.13
2019-02-09T17:38:29.964Z,69.33
2019-02-09T17:41:38.467Z,65.27
2019-02-09T17:44:47.355Z,82.97
2019-02-09T17:47:55.146Z,73.30
2019-02-09T17:51:03.143Z,49.97
2019-02-09T17:54:13.149Z,81.57
2019-02-09T17:57:21.043Z,97.70
2019-02-09T18:00:40.640Z,48.13
2019-02-09T18:03:47.906Z,79.33
2019-02-09T18:06:55.258Z,77.63
2019-02-09T18:10:02.611Z,62.80
2019-02-09T18:13:09.965Z,71.53
2019-02-09T18:16:17.442Z,101.53
2019-02-09T18:19:24.777Z,84.37
2019-02-09T18:22:32.375Z,104.63
2019-02-09T18:25:40.951Z,103.20
2019-02-09T18:28:50.811Z,105.43
2019-02-09T18:31:58.168Z,123.50
2019-02-09T18:35:05.635Z,115.17
2019-02-09T18:38:12.861Z,116.13
2019-02-09T18:41:20.077Z,97.77
2019-02-09T18:44:31.059Z,107.87
2019-02-09T18:47:38.027Z,99.73
2019-02-09T18:50:45.789Z,96.13
2019-02-09T18:53:52.992Z,95.13
2019-02-09T18:57:00.165Z,123.37
2019-02-09T19:00:08.375Z,107.03
2019-02-09T19:03:15.273Z,109.73
2019-02-09T19:06:22.138Z,111.40
2019-02-09T19:09:29.071Z,101.13
2019-02-09T19:12:37.325Z,55.67
2019-02-09T19:15:44.302Z,87.40
2019-02-09T19:18:52.159Z,73.40
2019-02-09T19:21:59.092Z,81.13
2019-02-09T19:25:06.335Z,81.43
2019-02-09T19:28:13.883Z,61.13
2019-02-09T19:31:20.951Z,73.97
2019-02-09T19:34:27.751Z,78.20
2019-02-09T19:37:35.621Z,42.37
2019-02-09T19:40:42.405Z,63.83
2019-02-09T19:43:49.233Z,68.77
2019-02-09T19:46:56.054Z,73.93
2019-02-09T19:50:02.879Z,96.40
2019-02-09T19:53:09.673Z,93.93
2019-02-09T19:56:16.790Z,80.07
2019-02-09T19:59:24.466Z,89.87
2019-02-09T20:02:32.734Z,79.50
2019-02-09T20:05:39.522Z,79.70
2019-02-09T20:08:46.399Z,96.43
2019-02-09T20:11:53.201Z,104.07
2019-02-09T20:14:59.997Z,121.40
2019-02-09T20:18:07.389Z,110.37
2019-02-09T20:21:14.296Z,111.57
2019-02-09T20:24:21.191Z,136.70
2019-02-09T20:27:27.970Z,100.70
2019-02-09T20:30:35.374Z,102.77
2019-02-09T20:33:42.275Z,105.30
2019-02-09T20:36:49.194Z,115.83
2019-02-09T20:39:56.247Z,99.53
2019-02-09T20:43:04.377Z,148.30
2019-02-09T20:46:12.488Z,105.97
2019-02-09T20:49:19.560Z,99.67
2019-02-09T20:52:26.465Z,122.90
2019-02-09T20:55:33.279Z,105.17
2019-02-09T20:58:40.138Z,83.97
2019-02-09T21:01:47.045Z,78.10
2019-02-09T21:04:53.861Z,77.20
2019-02-09T21:08:00.993Z,71.13
2019-02-09T21:11:08.178Z,65.80
2019-02-09T21:14:15.139Z,73.07
2019-02-09T21:17:21.920Z,77.87
2019-02-09T21:20:28.884Z,55.10
2019-02-09T21:23:35.661Z,43.63
2019-02-09T21:26:42.498Z,42.27
2019-02-09T21:29:49.424Z,70.30
2019-02-09T21:32:56.233Z,74.43
2019-02-09T21:36:03.301Z,47.10
2019-02-09T21:39:10.634Z,70.67
2019-02-09T21:42:17.925Z,72.13
2019-02-09T21:45:24.844Z,68.40
2019-02-09T21:48:32.832Z,75.07
2019-02-09T21:51:39.779Z,55.33
2019-02-09T21:54:46.870Z,40.27
2019-02-09T21:57:53.775Z,38.97
2019-02-09T22:01:01.546Z,42.90
2019-02-09T22:04:08.590Z,48.80
2019-02-09T22:07:15.381Z,51.43
2019-02-09T22:10:29.451Z,56.60
2019-02-09T22:13:31.413Z,67.73
2019-02-09T22:16:38.213Z,82.10
2019-02-09T22:19:44.990Z,92.57
2019-02-09T22:22:52.176Z,81.63
2019-02-09T22:25:59.960Z,81.37
2019-02-09T22:29:06.734Z,88.13
2019-02-09T22:32:13.555Z,92.60
2019-02-09T22:35:20.292Z,99.17
2019-02-09T22:38:27.386Z,104.37
2019-02-09T22:41:34.178Z,92.13
2019-02-09T22:44:41.064Z,75.43
2019-02-09T22:47:47.902Z,84.70
2019-02-09T22:50:54.680Z,107.53
2019-02-09T22:54:01.555Z,97.83
2019-02-09T22:57:08.298Z,96.00
2019-02-09T23:00:29.490Z,98.50
2019-02-09T23:03:44.202Z,113.83
2019-02-09T23:07:14.236Z,81.17
2019-02-09T23:10:21.077Z,72.87
2019-02-09T23:13:28.107Z,84.50
2019-02-09T23:16:34.878Z,72.00
2019-02-09T23:19:41.750Z,58.73
2019-02-09T23:22:48.522Z,68.13
2019-02-09T23:25:55.306Z,60.07
2019-02-09T23:29:02.075Z,58.87
2019-02-09T23:32:08.930Z,73.53
2019-02-09T23:35:15.690Z,57.63
2019-02-09T23:38:22.548Z,70.50
2019-02-09T23:41:29.297Z,65.10
2019-02-09T23:44:36.212Z,73.53
2019-02-09T23:47:43.044Z,40.37
2019-02-09T23:50:49.815Z,51.63
2019-02-09T23:53:56.854Z,43.27
2019-02-09T23:57:03.574Z,50.50
